createdAt,value
2019-06-20T00:01:18.330Z,61.70
2019-06-20T00:03:47.087Z,60.88
2019-06-20T00:06:15.925Z,62.90
2019-06-20T00:08:44.727Z,66.67
2019-06-20T00:11:13.487Z,63.33
2019-06-20T00:13:42.603Z,63.70
2019-06-20T00:16:11.459Z,65.85
2019-06-20T00:18:40.300Z,59.23
2019-06-20T00:21:09.058Z,60.50
2019-06-20T00:23:37.911Z,56.77
2019-06-20T00:26:06.754Z,57.43
2019-06-20T00:28:35.610Z,60.10
2019-06-20T00:31:04.697Z,58.17
2019-06-20T00:33:33.495Z,56.18
2019-06-20T00:36:02.274Z,58.28
2019-06-20T00:38:31.009Z,60.48
2019-06-20T00:40:59.771Z,56.73
2019-06-20T00:43:28.687Z,56.08
2019-06-20T00:45:57.439Z,63.42
2019-06-20T00:48:26.316Z,56.08
2019-06-20T00:50:55.110Z,60.20
2019-06-20T00:53:23.966Z,58.65
2019-06-20T00:55:52.730Z,66.62
2019-06-20T00:58:21.583Z,56.68
2019-06-20T01:00:50.418Z,60.00
2019-06-20T01:03:19.250Z,58.25
2019-06-20T01:05:48.103Z,56.10
2019-06-20T01:08:17.029Z,63.08
2019-06-20T01:10:45.854Z,50.38
2019-06-20T01:13:14.635Z,60.55
2019-06-20T01:15:44.679Z,55.38
2019-06-20T01:18:13.647Z,58.20
2019-06-20T01:20:42.408Z,59.03
2019-06-20T01:23:11.155Z,60.05
2019-06-20T01:25:42.587Z,63.20
2019-06-20T01:28:11.587Z,62.00
2019-06-20T01:30:40.533Z,62.50
2019-06-20T01:33:09.475Z,68.65
2019-06-20T01:35:38.242Z,61.60
2019-06-20T01:38:07.121Z,64.12
2019-06-20T01:40:36.376Z,56.35
2019-06-20T01:43:05.450Z,61.75
2019-06-20T01:45:34.380Z,60.10
2019-06-20T01:48:03.220Z,63.28
2019-06-20T01:50:32.083Z,55.70
2019-06-20T01:53:00.928Z,65.60
2019-06-20T01:55:29.846Z,63.50
2019-06-20T01:57:58.661Z,64.35
2019-06-20T02:00:45.206Z,59.77
2019-06-20T02:03:15.188Z,66.35
2019-06-20T02:05:44.140Z,57.48
2019-06-20T02:08:12.908Z,60.20
2019-06-20T02:10:41.836Z,61.83
2019-06-20T02:13:10.764Z,61.35
2019-06-20T02:15:39.736Z,56.53
2019-06-20T02:18:09.090Z,56.42
2019-06-20T02:20:39.557Z,52.03
2019-06-20T02:23:08.442Z,59.33
2019-06-20T02:25:37.233Z,58.60
2019-06-20T02:28:06.215Z,60.00
2019-06-20T02:30:35.149Z,58.15
2019-06-20T02:33:04.110Z,55.30
2019-06-20T02:35:32.906Z,64.77
2019-06-20T02:38:01.770Z,58.98
2019-06-20T02:40:31.010Z,66.20
2019-06-20T02:42:59.805Z,52.55
2019-06-20T02:45:29.735Z,56.02
2019-06-20T02:47:58.568Z,57.55
2019-06-20T02:50:27.620Z,63.10
2019-06-20T02:52:56.465Z,61.23
2019-06-20T02:55:25.438Z,70.05
2019-06-20T02:57:54.364Z,57.20
2019-06-20T03:00:42.276Z,56.83
2019-06-20T03:03:11.144Z,56.45
2019-06-20T03:05:40.352Z,75.32
2019-06-20T03:08:09.163Z,53.70
2019-06-20T03:10:37.976Z,47.78
2019-06-20T03:13:09.454Z,51.18
2019-06-20T03:15:37.500Z,62.33
2019-06-20T03:18:06.380Z,53.52
2019-06-20T03:20:35.243Z,61.53
2019-06-20T03:23:04.163Z,59.77
2019-06-20T03:25:34.572Z,74.55
2019-06-20T03:28:03.512Z,63.33
2019-06-20T03:30:32.384Z,61.63
2019-06-20T03:33:01.272Z,61.83
2019-06-20T03:35:30.267Z,64.27
2019-06-20T03:37:59.128Z,67.15
2019-06-20T03:40:27.913Z,65.75
2019-06-20T03:42:56.701Z,87.62
2019-06-20T03:45:25.641Z,55.83
2019-06-20T03:47:54.423Z,70.52
2019-06-20T03:50:23.240Z,77.20
2019-06-20T03:53:01.384Z,73.07
2019-06-20T03:55:30.917Z,75.95
2019-06-20T03:58:00.531Z,79.62
2019-06-20T04:00:35.235Z,76.30
2019-06-20T04:03:05.903Z,84.45
2019-06-20T04:05:35.582Z,71.02
2019-06-20T04:08:04.506Z,80.45
2019-06-20T04:10:33.741Z,83.00
2019-06-20T04:13:03.805Z,74.70
2019-06-20T04:15:32.920Z,68.47
2019-06-20T04:18:01.801Z,74.22
2019-06-20T04:20:30.599Z,85.90
2019-06-20T04:22:59.379Z,67.08
2019-06-20T04:25:28.144Z,67.78
2019-06-20T04:27:56.943Z,68.62
2019-06-20T04:30:25.749Z,67.20
2019-06-20T04:32:54.579Z,75.45
2019-06-20T04:35:23.608Z,69.40
2019-06-20T04:37:52.511Z,71.30
2019-06-20T04:40:21.517Z,60.98
2019-06-20T04:42:50.453Z,58.08
2019-06-20T04:45:43.742Z,60.20
2019-06-20T04:48:12.728Z,56.42
2019-06-20T04:50:41.596Z,59.13
2019-06-20T04:53:10.388Z,61.30
2019-06-20T04:55:39.176Z,55.17
2019-06-20T04:58:08.045Z,42.90
2019-06-20T05:00:36.932Z,40.75
2019-06-20T05:03:05.741Z,37.33
2019-06-20T05:05:34.679Z,34.38
2019-06-20T05:08:03.532Z,33.70
2019-06-20T05:10:32.341Z,34.65
2019-06-20T05:13:01.250Z,29.07
2019-06-20T05:15:30.029Z,27.98
2019-06-20T05:17:58.817Z,32.33
2019-06-20T05:20:27.628Z,30.92
2019-06-20T05:22:56.555Z,28.52
2019-06-20T05:25:25.492Z,28.73
2019-06-20T05:27:54.352Z,26.93
2019-06-20T05:30:23.464Z,26.48
2019-06-20T05:32:52.564Z,24.72
2019-06-20T05:35:21.480Z,25.55
2019-06-20T05:37:50.354Z,27.32
2019-06-20T05:40:19.614Z,26.50
2019-06-20T05:42:48.618Z,24.00
2019-06-20T05:45:17.844Z,29.37
2019-06-20T05:47:46.774Z,27.82
2019-06-20T05:50:16.061Z,25.80
2019-06-20T05:52:45.311Z,29.05
2019-06-20T05:55:16.045Z,26.33
2019-06-20T05:57:45.132Z,26.30
2019-06-20T06:00:16.012Z,27.32
2019-06-20T06:02:46.557Z,25.35
2019-06-20T06:05:15.528Z,30.80
2019-06-20T06:07:44.533Z,25.05
2019-06-20T06:10:13.788Z,26.00
2019-06-20T06:12:42.680Z,24.57
2019-06-20T06:15:12.105Z,27.62
2019-06-20T06:17:42.109Z,23.92
2019-06-20T06:20:12.272Z,25.82
2019-06-20T06:22:44.691Z,27.17
2019-06-20T06:25:14.283Z,23.38
2019-06-20T06:27:44.142Z,23.25
2019-06-20T06:30:14.756Z,27.27
2019-06-20T06:32:43.607Z,25.80
2019-06-20T06:35:13.119Z,25.72
2019-06-20T06:37:42.210Z,28.27
2019-06-20T06:40:11.907Z,25.72
2019-06-20T06:42:40.997Z,26.23
2019-06-20T06:45:10.983Z,26.45
2019-06-20T06:47:40.039Z,22.20
2019-06-20T06:50:09.942Z,28.70
2019-06-20T06:52:38.786Z,27.90
2019-06-20T06:55:07.877Z,27.67
2019-06-20T06:57:37.205Z,28.87
2019-06-20T07:00:08.671Z,31.12
2019-06-20T07:02:37.534Z,29.18
2019-06-20T07:05:06.624Z,32.40
2019-06-20T07:07:35.632Z,29.32
2019-06-20T07:10:05.828Z,29.57
2019-06-20T07:12:34.798Z,33.02
2019-06-20T07:15:03.844Z,28.20
2019-06-20T07:17:34.721Z,32.15
2019-06-20T07:20:03.802Z,32.33
2019-06-20T07:22:32.599Z,31.60
2019-06-20T07:25:01.519Z,28.77
2019-06-20T07:27:30.483Z,30.43
2019-06-20T07:29:59.348Z,29.55
2019-06-20T07:32:28.173Z,30.52
2019-06-20T07:34:57.105Z,32.55
2019-06-20T07:37:28.041Z,29.92
2019-06-20T07:39:56.992Z,31.27
2019-06-20T07:42:25.931Z,32.85
2019-06-20T07:44:54.927Z,30.77
2019-06-20T07:47:23.777Z,32.78
2019-06-20T07:49:52.731Z,30.10
2019-06-20T07:52:21.780Z,30.77
2019-06-20T07:54:50.845Z,30.48
2019-06-20T07:57:19.767Z,31.30
2019-06-20T07:59:48.853Z,29.15
2019-06-20T08:02:17.753Z,29.72
2019-06-20T08:04:46.849Z,30.80
2019-06-20T08:07:15.912Z,28.92
2019-06-20T08:09:45.602Z,32.23
2019-06-20T08:12:14.787Z,29.98
2019-06-20T08:14:43.790Z,30.27
2019-06-20T08:17:12.785Z,34.43
2019-06-20T08:19:41.691Z,30.88
2019-06-20T08:22:10.668Z,28.98
2019-06-20T08:24:39.662Z,33.78
2019-06-20T08:27:08.807Z,32.17
2019-06-20T08:29:37.742Z,32.38
2019-06-20T08:32:06.718Z,31.48
2019-06-20T08:34:35.612Z,31.02
2019-06-20T08:37:04.777Z,29.15
2019-06-20T08:39:33.673Z,31.48
2019-06-20T08:42:02.765Z,27.98
2019-06-20T08:44:31.765Z,28.00
2019-06-20T08:47:02.239Z,26.45
2019-06-20T08:49:31.280Z,27.52
2019-06-20T08:52:01.273Z,24.67
2019-06-20T08:54:30.640Z,25.17
2019-06-20T08:57:18.772Z,24.90
2019-06-20T08:59:47.808Z,24.55
2019-06-20T09:02:16.751Z,24.18
2019-06-20T09:04:48.798Z,22.10
2019-06-20T09:07:17.748Z,24.63
2019-06-20T09:09:46.850Z,21.95
2019-06-20T09:12:15.800Z,20.40
2019-06-20T09:14:44.942Z,20.88
2019-06-20T09:17:13.877Z,19.15
2019-06-20T09:19:42.742Z,22.58
2019-06-20T09:22:11.734Z,22.48
2019-06-20T09:24:40.726Z,20.77
2019-06-20T09:27:12.860Z,17.98
2019-06-20T09:29:42.224Z,17.30
2019-06-20T09:32:11.378Z,16.07
2019-06-20T09:34:40.462Z,17.92
2019-06-20T09:37:09.446Z,17.65
2019-06-20T09:39:38.603Z,13.95
2019-06-20T09:42:07.460Z,8.50
2019-06-20T09:44:36.476Z,7.40
2019-06-20T09:47:05.676Z,3.22
2019-06-20T09:49:36.329Z,2.25
2019-06-20T09:52:05.576Z,1.60
2019-06-20T09:54:36.337Z,3.00
2019-06-20T09:57:05.404Z,2.02
2019-06-20T09:59:34.504Z,3.08
2019-06-20T10:02:03.503Z,2.92
2019-06-20T10:04:32.495Z,6.87
2019-06-20T10:07:01.482Z,6.67
2019-06-20T10:09:33.589Z,5.95
2019-06-20T10:12:02.670Z,4.10
2019-06-20T10:14:31.798Z,4.65
2019-06-20T10:17:00.805Z,5.67
2019-06-20T10:19:29.689Z,7.42
2019-06-20T10:21:58.961Z,5.60
2019-06-20T10:24:27.965Z,6.62
2019-06-20T10:26:58.016Z,7.42
2019-06-20T10:29:26.986Z,6.33
2019-06-20T10:31:57.173Z,8.08
2019-06-20T10:34:30.960Z,7.90
2019-06-20T10:36:57.204Z,17.73
2019-06-20T10:39:26.164Z,8.83
2019-06-20T10:41:55.136Z,7.37
2019-06-20T10:44:25.048Z,6.78
2019-06-20T10:46:54.062Z,5.65
2019-06-20T10:49:23.052Z,10.13
2019-06-20T10:51:53.546Z,9.43
2019-06-20T10:54:22.508Z,9.63
2019-06-20T10:56:51.634Z,9.43
2019-06-20T10:59:20.596Z,10.90
2019-06-20T11:01:50.711Z,9.33
2019-06-20T11:04:19.893Z,7.28
2019-06-20T11:06:49.629Z,5.67
2019-06-20T11:09:19.552Z,5.60
2019-06-20T11:11:49.083Z,5.03
2019-06-20T11:14:18.529Z,5.90
2019-06-20T11:16:47.688Z,3.67
2019-06-20T11:19:16.746Z,2.98
2019-06-20T11:21:45.813Z,2.52
2019-06-20T11:24:14.744Z,4.92
2019-06-20T11:27:44.749Z,6.12
2019-06-20T11:29:52.986Z,4.33
2019-06-20T11:32:22.169Z,3.92
2019-06-20T11:34:53.140Z,3.90
2019-06-20T11:37:22.396Z,3.22
2019-06-20T11:39:53.546Z,3.75
2019-06-20T11:42:25.444Z,3.05
2019-06-20T11:44:54.747Z,3.92
2019-06-20T11:47:24.020Z,3.00
2019-06-20T11:49:53.975Z,4.08
2019-06-20T11:52:28.837Z,3.17
2019-06-20T11:54:57.917Z,4.85
2019-06-20T11:57:26.956Z,4.90
2019-06-20T11:59:55.779Z,5.40
2019-06-20T12:02:24.986Z,5.65
2019-06-20T12:04:54.094Z,4.30
2019-06-20T12:07:23.045Z,5.37
2019-06-20T12:09:52.005Z,5.83
2019-06-20T12:12:20.926Z,6.22
2019-06-20T12:14:51.253Z,6.90
2019-06-20T12:17:20.171Z,8.10
2019-06-20T12:19:49.189Z,6.12
2019-06-20T12:22:19.508Z,8.75
2019-06-20T12:24:48.898Z,6.70
2019-06-20T12:27:18.055Z,6.40
2019-06-20T12:29:49.262Z,7.75
2019-06-20T12:32:21.058Z,8.78
2019-06-20T12:34:53.208Z,6.70
2019-06-20T12:37:22.247Z,6.20
2019-06-20T12:39:51.227Z,6.67
2019-06-20T12:42:20.094Z,9.45
2019-06-20T12:44:50.717Z,5.95
2019-06-20T12:47:19.949Z,6.80
2019-06-20T12:49:48.909Z,9.13
2019-06-20T12:52:17.826Z,7.58
2019-06-20T12:54:47.040Z,8.43
2019-06-20T12:57:16.342Z,7.03
2019-06-20T12:59:46.315Z,6.87
2019-06-20T13:02:15.445Z,6.50
2019-06-20T13:04:45.942Z,10.60
2019-06-20T13:07:15.016Z,8.43
2019-06-20T13:09:46.297Z,8.28
2019-06-20T13:12:16.656Z,8.20
2019-06-20T13:14:45.775Z,8.20
2019-06-20T13:17:14.751Z,10.10
2019-06-20T13:19:44.365Z,9.93
2019-06-20T13:22:13.481Z,10.88
2019-06-20T13:24:42.754Z,7.15
2019-06-20T13:27:12.035Z,8.20
2019-06-20T13:29:41.169Z,8.68
2019-06-20T13:32:09.992Z,9.95
2019-06-20T13:34:39.859Z,10.05
2019-06-20T13:37:09.681Z,6.83
2019-06-20T13:39:40.054Z,6.65
2019-06-20T13:42:09.435Z,6.80
2019-06-20T13:44:39.628Z,8.13
2019-06-20T13:47:09.294Z,7.37
2019-06-20T13:49:39.743Z,6.80
2019-06-20T13:52:08.914Z,8.98
2019-06-20T13:54:39.667Z,9.88
2019-06-20T13:57:08.793Z,10.13
2019-06-20T13:59:37.796Z,11.78
2019-06-20T14:02:07.292Z,14.38
2019-06-20T14:04:36.214Z,12.82
2019-06-20T14:07:05.266Z,14.55
2019-06-20T14:09:34.178Z,15.03
2019-06-20T14:12:03.096Z,15.65
2019-06-20T14:14:32.000Z,16.23
2019-06-20T14:17:01.058Z,14.25
2019-06-20T14:19:30.108Z,10.60
2019-06-20T14:21:59.629Z,13.25
2019-06-20T14:24:29.649Z,16.60
2019-06-20T14:26:58.660Z,14.18
2019-06-20T14:29:27.642Z,14.47
2019-06-20T14:31:56.778Z,14.93
2019-06-20T14:34:25.849Z,16.17
2019-06-20T14:36:54.803Z,14.18
2019-06-20T14:39:23.898Z,21.25
2019-06-20T14:41:52.909Z,16.40
2019-06-20T14:44:21.806Z,17.40
2019-06-20T14:46:50.706Z,15.63
2019-06-20T14:49:19.507Z,15.72
2019-06-20T14:52:21.086Z,17.80
2019-06-20T14:54:30.619Z,17.87
2019-06-20T14:56:59.521Z,15.95
2019-06-20T14:59:31.164Z,17.80
2019-06-20T15:02:02.126Z,19.20
2019-06-20T15:07:07.608Z,17.48
2019-06-20T15:09:37.525Z,16.42
2019-06-20T15:12:08.788Z,19.60
2019-06-20T15:14:38.009Z,18.10
2019-06-20T15:19:41.768Z,16.90
2019-06-20T15:22:10.584Z,21.75
2019-06-20T15:27:29.256Z,18.42
2019-06-20T15:30:01.805Z,16.57
2019-06-20T15:32:31.716Z,17.90
2019-06-20T15:35:02.019Z,15.78
2019-06-20T15:37:35.196Z,20.05
2019-06-20T15:40:22.803Z,18.52
2019-06-20T15:42:53.530Z,17.07
2019-06-20T15:45:26.127Z,16.57
2019-06-20T15:47:58.723Z,16.02
2019-06-20T15:50:28.740Z,23.90
2019-06-20T15:54:34.432Z,20.85
2019-06-20T15:55:32.230Z,17.65
2019-06-20T16:00:05.466Z,16.42
2019-06-20T16:00:37.889Z,18.73
2019-06-20T16:03:10.295Z,18.37
2019-06-20T16:07:15.700Z,15.78
2019-06-20T16:08:23.709Z,16.70
2019-06-20T16:10:52.968Z,16.52
2019-06-20T16:16:04.374Z,15.93
2019-06-20T16:18:35.589Z,14.73
2019-06-20T16:21:06.472Z,13.22
2019-06-20T16:24:31.540Z,13.78
2019-06-20T16:26:12.577Z,15.43
2019-06-20T16:28:41.501Z,10.38
2019-06-20T16:31:26.309Z,12.78
2019-06-20T16:33:43.937Z,10.40
2019-06-20T16:36:15.016Z,13.58
2019-06-20T16:41:37.431Z,14.80
2019-06-20T16:44:34.425Z,14.07
2019-06-20T16:46:54.819Z,14.18
2019-06-20T16:49:24.979Z,10.80
2019-06-20T16:51:54.086Z,11.97
2019-06-20T16:57:16.623Z,7.20
2019-06-20T17:00:57.799Z,9.38
2019-06-20T17:02:22.368Z,8.05
2019-06-20T17:08:01.728Z,7.62
2019-06-20T17:10:02.018Z,10.35
2019-06-20T17:12:29.722Z,9.35
2019-06-20T17:15:02.725Z,8.05
2019-06-20T17:17:40.034Z,8.93
2019-06-20T17:20:10.178Z,9.10
2019-06-20T17:22:45.793Z,7.72
2019-06-20T17:25:15.130Z,9.18
2019-06-20T17:27:44.095Z,6.72
2019-06-20T17:30:16.905Z,8.55
2019-06-20T17:32:46.069Z,7.60
2019-06-20T17:35:17.581Z,8.58
2019-06-20T17:38:38.571Z,10.05
2019-06-20T17:42:16.366Z,9.65
2019-06-20T17:43:44.516Z,8.65
2019-06-20T17:46:12.303Z,9.13
2019-06-20T17:48:42.936Z,11.33
2019-06-20T17:51:11.941Z,11.50
2019-06-20T17:55:00.024Z,9.23
2019-06-20T17:56:35.490Z,9.58
2019-06-20T18:00:12.647Z,13.65
2019-06-20T18:05:07.258Z,7.55
2019-06-20T18:07:45.147Z,10.98
2019-06-20T18:10:15.385Z,8.88
2019-06-20T18:13:52.720Z,10.15
2019-06-20T18:15:29.069Z,8.10
2019-06-20T18:18:01.772Z,12.30
2019-06-20T18:20:34.514Z,8.93
2019-06-20T18:23:19.123Z,9.55
2019-06-20T18:25:35.706Z,7.17
2019-06-20T18:28:18.254Z,7.70
2019-06-20T18:32:10.059Z,9.88
2019-06-20T18:34:06.760Z,12.20
2019-06-20T18:36:38.973Z,10.75
2019-06-20T18:39:16.979Z,12.03
2019-06-20T18:41:41.173Z,10.63
2019-06-20T18:46:50.500Z,10.63
2019-06-20T18:49:55.417Z,12.95
2019-06-20T18:52:56.857Z,12.85
2019-06-20T18:55:42.150Z,9.93
2019-06-20T18:57:59.686Z,12.70
2019-06-20T19:00:43.550Z,8.45
2019-06-20T19:03:27.658Z,12.60
2019-06-20T19:07:12.329Z,11.15
2019-06-20T19:08:51.346Z,8.60
2019-06-20T19:11:21.713Z,11.30
2019-06-20T19:19:22.716Z,11.78
2019-06-20T19:21:52.023Z,11.43
2019-06-20T19:27:11.752Z,9.28
2019-06-20T19:30:06.636Z,9.48
2019-06-20T19:32:38.097Z,10.65
2019-06-20T19:40:47.938Z,9.73
2019-06-20T19:43:16.939Z,9.83
2019-06-20T19:48:48.662Z,11.18
2019-06-20T19:51:49.083Z,14.68
2019-06-20T19:54:27.676Z,11.63
2019-06-20T19:57:14.933Z,9.40
2019-06-20T20:00:43.064Z,10.60
2019-06-20T20:05:29.966Z,17.32
2019-06-20T20:07:58.974Z,15.68
2019-06-20T20:10:41.367Z,12.75
2019-06-20T20:13:10.337Z,12.75
2019-06-20T20:15:39.552Z,11.95
2019-06-20T20:18:08.950Z,15.63
2019-06-20T20:20:37.877Z,14.07
2019-06-20T20:23:07.023Z,13.60
2019-06-20T20:25:35.947Z,12.40
2019-06-20T20:28:06.249Z,11.48
2019-06-20T20:30:35.355Z,12.23
2019-06-20T20:33:04.520Z,8.75
2019-06-20T20:35:36.206Z,11.40
2019-06-20T20:38:05.609Z,14.68
2019-06-20T20:40:34.584Z,15.72
2019-06-20T20:43:03.458Z,14.58
2019-06-20T20:45:32.311Z,10.58
2019-06-20T20:48:01.348Z,10.85
2019-06-20T20:50:30.277Z,12.80
2019-06-20T20:53:04.614Z,12.58
2019-06-20T20:55:33.460Z,12.40
2019-06-20T20:58:02.257Z,11.73
2019-06-20T21:00:48.217Z,12.07
2019-06-20T21:03:17.055Z,13.28
2019-06-20T21:05:51.740Z,15.15
2019-06-20T21:08:19.799Z,10.82
2019-06-20T21:10:48.692Z,12.35
2019-06-20T21:13:17.551Z,11.80
2019-06-20T21:15:46.804Z,12.63
2019-06-20T21:18:15.785Z,11.53
2019-06-20T21:20:44.888Z,13.48
2019-06-20T21:23:13.727Z,10.15
2019-06-20T21:25:42.658Z,17.45
2019-06-20T21:28:15.906Z,15.40
2019-06-20T21:30:44.962Z,12.37
2019-06-20T21:33:13.995Z,12.80
2019-06-20T21:35:43.004Z,13.58
2019-06-20T21:38:12.252Z,12.80
2019-06-20T21:40:41.072Z,9.43
2019-06-20T21:43:09.998Z,11.10
2019-06-20T21:45:38.975Z,10.20
2019-06-20T21:48:07.881Z,13.90
2019-06-20T21:50:36.876Z,14.95
2019-06-20T21:53:05.798Z,12.60
2019-06-20T21:55:34.856Z,15.48
2019-06-20T21:58:03.792Z,11.28
2019-06-20T22:00:41.924Z,14.35
2019-06-20T22:03:11.520Z,14.05
2019-06-20T22:05:40.843Z,15.93
2019-06-20T22:08:09.833Z,13.85
2019-06-20T22:10:38.885Z,14.40
2019-06-20T22:13:07.957Z,12.68
2019-06-20T22:15:37.368Z,11.90
2019-06-20T22:18:06.512Z,12.00
2019-06-20T22:20:35.687Z,14.10
2019-06-20T22:23:06.411Z,11.88
2019-06-20T22:25:35.420Z,13.38
2019-06-20T22:28:04.809Z,17.90
2019-06-20T22:30:50.172Z,14.20
2019-06-20T22:33:22.460Z,16.73
2019-06-20T22:35:51.471Z,18.07
2019-06-20T22:38:21.539Z,13.68
2019-06-20T22:40:53.676Z,16.37
2019-06-20T22:43:22.663Z,13.08
2019-06-20T22:45:51.703Z,15.55
2019-06-20T22:48:20.712Z,14.70
2019-06-20T22:50:49.794Z,20.88
2019-06-20T22:53:21.619Z,13.88
2019-06-20T22:55:50.663Z,16.35
2019-06-20T22:58:19.702Z,16.70
2019-06-20T23:00:51.151Z,16.52
2019-06-20T23:03:20.137Z,16.73
2019-06-20T23:05:49.094Z,18.35
2019-06-20T23:08:18.076Z,14.03
2019-06-20T23:10:47.349Z,16.20
2019-06-20T23:13:16.408Z,12.28
2019-06-20T23:15:45.603Z,17.23
2019-06-20T23:18:14.568Z,17.00
2019-06-20T23:21:00.689Z,19.55
2019-06-20T23:23:14.358Z,17.23
2019-06-20T23:25:45.615Z,18.73
2019-06-20T23:28:17.638Z,17.52
2019-06-20T23:30:46.940Z,15.53
2019-06-20T23:33:19.186Z,15.75
2019-06-20T23:35:48.184Z,16.93
2019-06-20T23:38:17.123Z,16.80
2019-06-20T23:40:48.646Z,15.03
2019-06-20T23:43:17.544Z,15.25
2019-06-20T23:45:46.564Z,15.90
2019-06-20T23:48:15.544Z,18.25
2019-06-20T23:50:44.359Z,16.30
2019-06-20T23:53:23.755Z,18.87
2019-06-20T23:55:53.551Z,20.75
2019-06-20T23:58:22.625Z,17.42
